Wilson Astakos — 9HA2370 — position and weather

sailwx.info

Track history (hours):
 
Tides and Currents Weather Stations Pressure Air Temp Water Temp Dewpoint Dewpoint Depression Visibility Wind Speed Wind Dir Waves Ship Positions

Wilson Astakos

Last reported at 2018-Apr-27 06:28 UTC. Time now 2018-Apr-27 06:39 UTC.
Position N 57°03' E 010°04'.

Length 89 m; draft 5.2 m.

Type: Cargo ship. MMSI: 248448000.

Date/timePositionNaut miles runAvg speedWind from/ knotsBaromVisibWave heightAir tempDewpointWater temp
2018-Apr-27 06:28N 57°03' E 010°04'0 0.0
2018-Apr-27 05:58N 57°03' E 010°04'0 0.0
2018-Apr-27 05:28N 57°03' E 010°04'0 0.0
2018-Apr-27 04:58N 57°03' E 010°04'0 0.0
2018-Apr-27 04:25N 57°03' E 010°04'0 0.0
2018-Apr-27 03:55N 57°03' E 010°04'0 0.0
2018-Apr-27 03:28N 57°03' E 010°04'0 0.0
2018-Apr-27 02:55N 57°03' E 010°04'0 0.0
2018-Apr-27 02:28N 57°03' E 010°04'0 0.0
2018-Apr-27 01:58N 57°03' E 010°04'0 0.0
2018-Apr-27 01:25N 57°03' E 010°04'0 0.0
2018-Apr-27 00:55N 57°03' E 010°04'0 0.0
2018-Apr-27 00:25N 57°03' E 010°04'0 0.0
2018-Apr-26 23:55N 57°03' E 010°04'0 0.0
2018-Apr-26 23:28N 57°03' E 010°04'0 0.0
2018-Apr-26 22:58N 57°03' E 010°04'0 0.0
2018-Apr-26 22:25N 57°03' E 010°04'0 0.0
2018-Apr-26 21:58N 57°03' E 010°04'0 0.0
2018-Apr-26 21:28N 57°03' E 010°04'0 0.0
2018-Apr-26 20:58N 57°03' E 010°04'0 0.0
2018-Apr-26 20:28N 57°03' E 010°04'0 0.0
2018-Apr-26 19:58N 57°03' E 010°04'0 0.0
2018-Apr-26 19:28N 57°03' E 010°04'0 0.0
2018-Apr-26 19:00N 57°03' E 010°04'3 5.1
2018-Apr-26 18:30N 57°02' E 010°08'4 8.7
2018-Apr-26 18:00N 56°59' E 010°14'22 5.3
2018-Apr-26 13:46N 57°15' E 010°42'2 8.8
2018-Apr-26 13:30N 57°18' E 010°42'4 8.4
2018-Apr-26 13:00N 57°22' E 010°42'4 8.4
2018-Apr-26 12:30N 57°26' E 010°43'4 8.8
2018-Apr-26 12:00N 57°31' E 010°43'4 8.8
2018-Apr-26 11:30N 57°35' E 010°44'4 8.7
2018-Apr-26 11:00N 57°39' E 010°44'5 9.2
2018-Apr-26 10:30N 57°44' E 010°45'4 7.2
2018-Apr-26 10:00N 57°47' E 010°40'611.2
2018-Apr-26 09:30N 57°47' E 010°30'64 9.7
2018-Apr-26 02:53N 57°53' E 008°30'4 9.2
2018-Apr-26 02:30N 57°53' E 008°23'5 9.2
2018-Apr-26 02:00N 57°53' E 008°15'5 9.5
2018-Apr-26 01:30N 57°54' E 008°06'5 9.4
2018-Apr-26 01:00N 57°54' E 007°57'5 9.4
2018-Apr-26 00:30N 57°54' E 007°48'5 9.6
2018-Apr-26 00:00N 57°55' E 007°39'5 9.9
2018-Apr-25 23:30N 57°55' E 007°30'5 9.7
2018-Apr-25 22:59N 57°56' E 007°20'5 9.7
2018-Apr-25 22:30N 57°56' E 007°12'5 9.6
2018-Apr-25 22:00N 57°57' E 007°03'5 9.6
2018-Apr-25 21:30N 57°58' E 006°54'510.2
2018-Apr-25 21:01N 58°01' E 006°46'510.1
2018-Apr-25 20:30N 58°03' E 006°37'5 9.1
2018-Apr-25 20:00N 58°06' E 006°31'5 9.4
2018-Apr-25 19:30N 58°10' E 006°25'5 9.7
2018-Apr-25 19:00N 58°13' E 006°19'5 9.0
2018-Apr-25 18:30N 58°17' E 006°15'3 4.5
2018-Apr-25 17:56N 58°20' E 006°15'0 0.0
2018-Apr-25 17:28N 58°20' E 006°15'0 0.0
2018-Apr-25 16:58N 58°20' E 006°15'0 0.0
2018-Apr-25 16:28N 58°20' E 006°15'0 0.0
2018-Apr-25 15:58N 58°20' E 006°15'0 0.0
2018-Apr-25 15:28N 58°20' E 006°15'0 0.0
2018-Apr-25 14:55N 58°20' E 006°15'0 0.0
2018-Apr-25 14:25N 58°20' E 006°15'0 0.0
2018-Apr-25 13:58N 58°20' E 006°15'0 0.0
2018-Apr-25 13:28N 58°20' E 006°15'0 0.0
2018-Apr-25 12:55N 58°20' E 006°15'0 0.0
2018-Apr-25 12:28N 58°20' E 006°15'0 0.0
2018-Apr-25 11:58N 58°20' E 006°15'0 0.0
2018-Apr-25 11:25N 58°20' E 006°15'0 0.0
2018-Apr-25 10:58N 58°20' E 006°15'0 0.0
2018-Apr-25 10:25N 58°20' E 006°15'0 0.0
2018-Apr-25 09:52N 58°20' E 006°15'0 0.0
2018-Apr-25 09:25N 58°20' E 006°15'0 0.0
2018-Apr-25 08:55N 58°20' E 006°15'0 0.0
2018-Apr-25 08:28N 58°20' E 006°15'0 0.0
2018-Apr-25 07:58N 58°20' E 006°15'0 0.0
2018-Apr-25 07:28N 58°20' E 006°15'0 0.0
2018-Apr-25 07:00N 58°20' E 006°15'0 0.0
2018-Apr-25 06:30N 58°20' E 006°15'0 0.0
2018-Apr-25 06:00N 58°20' E 006°15'0 0.0
2018-Apr-25 05:30N 58°20' E 006°15'2 4.0
2018-Apr-25 05:00N 58°18' E 006°14'4 8.8
2018-Apr-25 04:30N 58°14' E 006°17'5 9.1
2018-Apr-25 04:00N 58°10' E 006°23'5 9.3
2018-Apr-25 03:31N 58°07' E 006°29'5 9.5
2018-Apr-25 03:00N 58°04' E 006°35'5 9.6
2018-Apr-25 02:30N 58°01' E 006°43'5 9.2
2018-Apr-25 02:00N 57°59' E 006°51'5 9.1
2018-Apr-25 01:30N 57°58' E 006°59'4 8.8
2018-Apr-25 01:00N 57°57' E 007°07'4 8.2
2018-Apr-25 00:30N 57°57' E 007°15'4 6.9
2018-Apr-24 23:59N 57°57' E 007°21'4 7.4
2018-Apr-24 23:30N 57°57' E 007°28'4 7.7
2018-Apr-24 23:00N 57°57' E 007°35'4 7.7
2018-Apr-24 22:30N 57°58' E 007°42'4 8.2
2018-Apr-24 21:59N 57°59' E 007°50'4 8.4
2018-Apr-24 21:30N 58°01' E 007°57'4 8.4
2018-Apr-24 21:00N 58°03' E 008°04'4 7.8
2018-Apr-24 20:30N 58°07' E 008°02'3 4.8
2018-Apr-24 19:59N 58°08' E 007°58'0 0.0
2018-Apr-24 19:29N 58°08' E 007°58'0 0.0
2018-Apr-24 18:59N 58°08' E 007°58'0 0.0
2018-Apr-24 18:29N 58°08' E 007°58'0 0.0
2018-Apr-24 17:59N 58°08' E 007°58'0 0.0
2018-Apr-24 17:29N 58°08' E 007°58'0 0.0
2018-Apr-24 16:59N 58°08' E 007°58'0 0.0
2018-Apr-24 16:29N 58°08' E 007°58'0 0.0
2018-Apr-24 15:59N 58°08' E 007°58'0 0.0
2018-Apr-24 15:29N 58°08' E 007°58'0 0.0
2018-Apr-24 14:59N 58°08' E 007°58'0 0.0
2018-Apr-24 14:29N 58°08' E 007°58'0 0.0
2018-Apr-24 13:59N 58°08' E 007°58'0 0.0
2018-Apr-24 13:29N 58°08' E 007°58'0 0.0
2018-Apr-24 12:59N 58°08' E 007°58'0 0.0
2018-Apr-24 12:29N 58°08' E 007°58'0 0.0
2018-Apr-24 11:59N 58°08' E 007°58'0 0.0
2018-Apr-24 11:29N 58°08' E 007°58'0 0.0
2018-Apr-24 10:59N 58°08' E 007°58'0 0.0
2018-Apr-24 10:29N 58°08' E 007°58'0 0.0
2018-Apr-24 09:59N 58°08' E 007°58'0 0.0
2018-Apr-24 09:29N 58°08' E 007°58'0 0.0
2018-Apr-24 08:59N 58°08' E 007°58'0 0.0
2018-Apr-24 08:29N 58°08' E 007°58'0 0.0
2018-Apr-24 07:59N 58°08' E 007°58'0 0.0
2018-Apr-24 07:29N 58°08' E 007°58'0 0.0
2018-Apr-24 06:59N 58°08' E 007°58'0 0.0
2018-Apr-24 06:29N 58°08' E 007°58'0 0.0
2018-Apr-24 05:59N 58°08' E 007°58'0 0.0
2018-Apr-24 05:29N 58°08' E 007°58'0 0.0
2018-Apr-24 04:59N 58°08' E 007°58'0 0.0
2018-Apr-24 04:29N 58°08' E 007°58'0 0.0
2018-Apr-24 03:59N 58°08' E 007°58'0 0.0
2018-Apr-24 03:29N 58°08' E 007°58'0 0.0
2018-Apr-24 02:59N 58°08' E 007°58'0 0.0
2018-Apr-24 02:29N 58°08' E 007°58'0 0.0
2018-Apr-24 01:59N 58°08' E 007°58'0 0.0
2018-Apr-24 01:29N 58°08' E 007°58'0 0.0
2018-Apr-24 00:59N 58°08' E 007°58'0 0.0
2018-Apr-24 00:29N 58°08' E 007°58'0 0.0
2018-Apr-23 23:59N 58°08' E 007°58'0 0.0
2018-Apr-23 23:29N 58°08' E 007°58'0 0.0
2018-Apr-23 22:59N 58°08' E 007°58'0 0.0
2018-Apr-23 22:29N 58°08' E 007°58'0 0.0
2018-Apr-23 21:59N 58°08' E 007°58'0 0.0
2018-Apr-23 21:29N 58°08' E 007°58'0 0.0
2018-Apr-23 20:59N 58°08' E 007°58'0 0.0
2018-Apr-23 20:29N 58°08' E 007°58'0 0.0
2018-Apr-23 19:59N 58°08' E 007°58'0 0.0
2018-Apr-23 19:29N 58°08' E 007°58'0 0.0
2018-Apr-23 18:59N 58°08' E 007°58'0 0.0
2018-Apr-23 18:29N 58°08' E 007°58'0 0.0
2018-Apr-23 17:59N 58°08' E 007°58'0 0.0
2018-Apr-23 17:29N 58°08' E 007°58'0 0.0
2018-Apr-23 16:59N 58°08' E 007°58'0 0.0
2018-Apr-23 16:29N 58°08' E 007°58'0 0.0
2018-Apr-23 15:59N 58°08' E 007°58'0 0.0
2018-Apr-23 15:29N 58°08' E 007°58'0 0.0
2018-Apr-23 14:59N 58°08' E 007°58'0 0.0
2018-Apr-23 14:29N 58°08' E 007°58'0 0.0
2018-Apr-23 13:59N 58°08' E 007°58'0 0.0
2018-Apr-23 13:29N 58°08' E 007°58'0 0.0
2018-Apr-23 12:59N 58°08' E 007°58'0 0.0
2018-Apr-23 12:29N 58°08' E 007°58'0 0.0
2018-Apr-23 11:59N 58°08' E 007°58'0 0.0
2018-Apr-23 11:29N 58°08' E 007°58'0 0.0
2018-Apr-23 10:59N 58°08' E 007°58'0 0.0
2018-Apr-23 10:29N 58°08' E 007°58'0 0.0
2018-Apr-23 09:59N 58°08' E 007°58'0 0.0
2018-Apr-23 09:29N 58°08' E 007°58'0 0.0
2018-Apr-23 08:56N 58°08' E 007°58'0 0.0
2018-Apr-23 08:29N 58°08' E 007°58'0 0.0
2018-Apr-23 07:59N 58°08' E 007°58'0 0.0
2018-Apr-23 07:29N 58°08' E 007°58'0 0.0
2018-Apr-23 06:59N 58°08' E 007°58'0 0.0
2018-Apr-23 06:29N 58°08' E 007°58'0 0.0
2018-Apr-23 05:59N 58°08' E 007°58'0 0.0
2018-Apr-23 05:29N 58°08' E 007°58'0 0.0
2018-Apr-23 04:59N 58°08' E 007°58'0 0.0
2018-Apr-23 04:29N 58°08' E 007°58'0 0.0
2018-Apr-23 03:59N 58°08' E 007°58'0 0.0
2018-Apr-23 03:29N 58°08' E 007°58'0 0.0
2018-Apr-23 02:59N 58°08' E 007°58'0 0.0
2018-Apr-23 02:29N 58°08' E 007°58'0 0.0
2018-Apr-23 01:59N 58°08' E 007°58'0 0.0
2018-Apr-23 01:29N 58°08' E 007°58'0 0.0
2018-Apr-23 00:59N 58°08' E 007°58'0 0.0
2018-Apr-23 00:29N 58°08' E 007°58'0 0.0
2018-Apr-22 23:56N 58°08' E 007°58'0 0.0
2018-Apr-22 23:29N 58°08' E 007°58'0 0.0
2018-Apr-22 22:59N 58°08' E 007°58'0 0.0
2018-Apr-22 22:29N 58°08' E 007°58'0 0.0
2018-Apr-22 21:59N 58°08' E 007°58'0 0.0
2018-Apr-22 21:29N 58°08' E 007°58'0 0.0
2018-Apr-22 20:59N 58°08' E 007°58'0 0.0
2018-Apr-22 20:29N 58°08' E 007°58'0 0.0
2018-Apr-22 19:59N 58°08' E 007°58'0 0.0
2018-Apr-22 19:29N 58°08' E 007°58'0 0.0
2018-Apr-22 18:59N 58°08' E 007°58'0 0.0
2018-Apr-22 18:29N 58°08' E 007°58'0 0.0
2018-Apr-22 17:59N 58°08' E 007°58'0 0.0
2018-Apr-22 17:29N 58°08' E 007°58'0 0.0
2018-Apr-22 16:59N 58°08' E 007°58'0 0.0
2018-Apr-22 16:29N 58°08' E 007°58'0 0.0
2018-Apr-22 15:59N 58°08' E 007°58'0 0.0
2018-Apr-22 15:29N 58°08' E 007°58'0 0.0
2018-Apr-22 14:59N 58°08' E 007°58'0 0.0
2018-Apr-22 14:29N 58°08' E 007°58'0 0.0
2018-Apr-22 13:59N 58°08' E 007°58'0 0.0
2018-Apr-22 13:29N 58°08' E 007°58'0 0.0
2018-Apr-22 12:59N 58°08' E 007°58'0 0.0
2018-Apr-22 12:29N 58°08' E 007°58'0 0.0
2018-Apr-22 11:59N 58°08' E 007°58'0 0.0
2018-Apr-22 11:29N 58°08' E 007°58'0 0.0
2018-Apr-22 10:59N 58°08' E 007°58'0 0.0
2018-Apr-22 10:29N 58°08' E 007°58'0 0.0
2018-Apr-22 09:59N 58°08' E 007°58'0 0.0
2018-Apr-22 09:29N 58°08' E 007°58'0 0.0
2018-Apr-22 08:59N 58°08' E 007°58'0 0.0
2018-Apr-22 08:29N 58°08' E 007°58'0 0.0
2018-Apr-22 07:59N 58°08' E 007°58'0 0.0
2018-Apr-22 07:29N 58°08' E 007°58'0 0.0
2018-Apr-22 06:59N 58°08' E 007°58'0 0.2
2018-Apr-22 06:30N 58°08' E 007°58'3 5.1
2018-Apr-22 06:00N 58°07' E 008°02'4 8.2
2018-Apr-22 05:30N 58°03' E 008°07'3 6.6
2018-Apr-22 05:00N 58°02' E 008°12'5 9.9
2018-Apr-22 04:31N 58°00' E 008°21'5 9.2
2018-Apr-22 04:00N 57°59' E 008°29'14 8.7
2018-Apr-22 02:25N 57°55' E 008°54'4 9.3
2018-Apr-22 02:00N 57°55' E 009°01'4 8.8
2018-Apr-22 01:30N 57°55' E 009°10'4 8.4
2018-Apr-22 01:00N 57°54' E 009°18'4 8.8
2018-Apr-22 00:30N 57°54' E 009°26'5 9.9
2018-Apr-22 00:01N 57°53' E 009°35'5 9.5
2018-Apr-21 23:30N 57°53' E 009°44'4 8.9
2018-Apr-21 23:01N 57°52' E 009°52'5 9.6
2018-Apr-21 22:31N 57°51' E 010°01'5 9.5
2018-Apr-21 22:01N 57°51' E 010°10'5 9.3
2018-Apr-21 21:30N 57°50' E 010°19'5 9.2
2018-Apr-21 21:01N 57°49' E 010°27'4 8.8
2018-Apr-21 20:30N 57°49' E 010°35'4 8.2
2018-Apr-21 20:00N 57°49' E 010°43'4 7.4
2018-Apr-21 19:30N 57°47' E 010°49'4 7.5
2018-Apr-21 19:00N 57°44' E 010°54'4 8.4
2018-Apr-21 18:30N 57°41' E 010°60'4 8.4
2018-Apr-21 18:00N 57°38' E 011°05'4 8.7
2018-Apr-21 17:31N 57°35' E 011°11'5 9.4
2018-Apr-21 17:01N 57°32' E 011°18'5 9.7
2018-Apr-21 16:31N 57°29' E 011°24'5 9.4
2018-Apr-21 16:01N 57°25' E 011°28'5 9.6
2018-Apr-21 15:31N 57°20' E 011°31'5 9.5
2018-Apr-21 15:00N 57°16' E 011°34'5 9.6
2018-Apr-21 14:29N 57°11' E 011°37'5 9.4
2018-Apr-21 14:00N 57°07' E 011°40'5 9.3
2018-Apr-21 13:31N 57°02' E 011°43'5 9.2
2018-Apr-21 12:58N 56°58' E 011°46'5 8.9
2018-Apr-21 12:25N 56°53' E 011°49'47 8.0
2018-Apr-21 06:33N 56°10' E 012°25'0 8.8
2018-Apr-21 06:30N 56°10' E 012°26'4 8.3
2018-Apr-21 06:01N 56°08' E 012°32'4 7.7
2018-Apr-21 05:30N 56°05' E 012°37'3 6.7
2018-Apr-21 05:01N 56°02' E 012°40'4 7.4
2018-Apr-21 04:31N 55°59' E 012°42'4 8.6
2018-Apr-21 04:01N 55°55' E 012°45'5 9.0
2018-Apr-21 03:31N 55°50' E 012°44'5 9.5
2018-Apr-21 03:01N 55°46' E 012°42'4 8.6
2018-Apr-21 02:31N 55°41' E 012°41'4 7.5
2018-Apr-21 02:01N 55°38' E 012°42'3 6.8
2018-Apr-21 01:31N 55°34' E 012°42'4 7.9
2018-Apr-21 01:00N 55°30' E 012°43'4 8.7
2018-Apr-21 00:31N 55°26' E 012°42'4 8.9
2018-Apr-21 00:01N 55°21' E 012°41'4 9.0
2018-Apr-20 23:31N 55°17' E 012°40'4 8.7
2018-Apr-20 23:00N 55°13' E 012°41'9 8.9
2018-Apr-20 21:58N 55°09' E 012°56'129 8.1
2018-Apr-20 06:03N 54°50' E 016°38'1 9.5
2018-Apr-20 05:57N 54°50' E 016°40'5 9.5
2018-Apr-20 05:27N 54°51' E 016°48'6 9.5
2018-Apr-20 04:47N 54°52' E 016°58'5 9.4
2018-Apr-20 04:18N 54°53' E 017°06'3 9.4
2018-Apr-20 04:00N 54°54' E 017°11'6 9.4
2018-Apr-20 03:25N 54°55' E 017°20'4 9.3
2018-Apr-20 03:00N 54°56' E 017°27'6 9.4
2018-Apr-20 02:24N 54°56' E 017°37'4 9.3
2018-Apr-20 02:00N 54°56' E 017°43'6 9.4
2018-Apr-20 01:24N 54°56' E 017°53'4 9.5
2018-Apr-20 01:00N 54°56' E 017°60'5 9.3
2018-Apr-20 00:30N 54°56' E 018°08'5 9.3
2018-Apr-20 00:00N 54°56' E 018°16'4 7.7
2018-Apr-19 23:31N 54°55' E 018°22'5 9.1
2018-Apr-19 23:01N 54°52' E 018°28'5 9.1
2018-Apr-19 22:31N 54°49' E 018°34'5 9.1
2018-Apr-19 22:00N 54°46' E 018°40'5 9.1
2018-Apr-19 21:31N 54°44' E 018°47'5 9.4
2018-Apr-19 21:00N 54°42' E 018°54'4 7.5
2018-Apr-19 20:31N 54°38' E 018°56'5 9.4
2018-Apr-19 20:01N 54°34' E 018°52'5 9.2
2018-Apr-19 19:31N 54°31' E 018°46'5 9.5
2018-Apr-19 19:01N 54°27' E 018°41'3 6.2
2018-Apr-19 18:31N 54°24' E 018°41'2 3.7
2018-Apr-19 18:00N 54°22' E 018°40'0 0.4
2018-Apr-19 17:26N 54°22' E 018°40'0 0.0
2018-Apr-19 16:59N 54°22' E 018°40'0 0.0
2018-Apr-19 16:29N 54°22' E 018°40'0 0.0
2018-Apr-19 15:59N 54°22' E 018°40'0 0.0
2018-Apr-19 15:29N 54°22' E 018°40'0 0.0
2018-Apr-19 14:59N 54°22' E 018°40'0 0.0
2018-Apr-19 14:29N 54°22' E 018°40'0 0.0
2018-Apr-19 13:59N 54°22' E 018°40'0 0.0
2018-Apr-19 13:29N 54°22' E 018°40'0 0.0
2018-Apr-19 12:59N 54°22' E 018°40'0 0.0
2018-Apr-19 12:29N 54°22' E 018°40'0 0.0
2018-Apr-19 11:59N 54°22' E 018°40'0 0.0
2018-Apr-19 11:29N 54°22' E 018°40'0 0.0
2018-Apr-19 10:59N 54°22' E 018°40'0 0.0
2018-Apr-19 10:29N 54°22' E 018°40'0 0.0
2018-Apr-19 09:59N 54°22' E 018°40'0 0.0
2018-Apr-19 09:29N 54°22' E 018°40'0 0.0
2018-Apr-19 08:59N 54°22' E 018°40'0 0.0
2018-Apr-19 08:26N 54°22' E 018°40'0 0.0
2018-Apr-19 07:59N 54°22' E 018°40'0 0.0
2018-Apr-19 07:29N 54°22' E 018°40'0 0.0
2018-Apr-19 06:59N 54°22' E 018°40'0 0.0
2018-Apr-19 06:29N 54°22' E 018°40'0 0.0
2018-Apr-19 05:59N 54°22' E 018°40'0 0.0
2018-Apr-19 05:23N 54°22' E 018°40'0 0.0
2018-Apr-19 04:56N 54°22' E 018°40'0 0.0
2018-Apr-19 04:23N 54°22' E 018°40'0 0.0
2018-Apr-19 03:59N 54°22' E 018°40'0 0.0
2018-Apr-19 03:29N 54°22' E 018°40'0 0.0
2018-Apr-19 02:59N 54°22' E 018°40'0 0.0
2018-Apr-19 02:29N 54°22' E 018°40'0 0.0
2018-Apr-19 01:59N 54°22' E 018°40'0 0.0
2018-Apr-19 01:29N 54°22' E 018°40'0 0.0
2018-Apr-19 00:59N 54°22' E 018°40'0 0.0
2018-Apr-19 00:29N 54°22' E 018°40'0 0.0
2018-Apr-18 23:59N 54°22' E 018°40'0 0.0
2018-Apr-18 23:29N 54°22' E 018°40'0 0.0
2018-Apr-18 22:59N 54°22' E 018°40'0 0.0
2018-Apr-18 22:29N 54°22' E 018°40'0 0.0
2018-Apr-18 21:56N 54°22' E 018°40'0 0.0
2018-Apr-18 21:29N 54°22' E 018°40'0 0.0
2018-Apr-18 20:59N 54°22' E 018°40'0 0.0
2018-Apr-18 20:29N 54°22' E 018°40'0 0.0
2018-Apr-18 19:56N 54°22' E 018°40'0 0.0
2018-Apr-18 19:29N 54°22' E 018°40'0 0.2
2018-Apr-18 19:00N 54°22' E 018°40'3 5.4
2018-Apr-18 18:30N 54°25' E 018°39'1 2.3
2018-Apr-18 17:59N 54°26' E 018°39'0 0.0
2018-Apr-18 17:29N 54°26' E 018°39'0 0.1
2018-Apr-18 16:59N 54°26' E 018°39'0 0.1
2018-Apr-18 16:29N 54°26' E 018°39'0 0.0
2018-Apr-18 15:59N 54°26' E 018°39'0 0.0
2018-Apr-18 15:29N 54°26' E 018°39'0 0.1
2018-Apr-18 14:59N 54°26' E 018°39'0 0.0
2018-Apr-18 14:29N 54°26' E 018°39'0 0.2
2018-Apr-18 13:59N 54°26' E 018°39'0 0.1
2018-Apr-18 13:29N 54°26' E 018°39'0 0.0
2018-Apr-18 12:59N 54°26' E 018°39'0 0.0
2018-Apr-18 12:29N 54°26' E 018°39'0 0.0
2018-Apr-18 11:59N 54°26' E 018°39'0 0.1
2018-Apr-18 11:29N 54°26' E 018°39'0 0.1
2018-Apr-18 10:56N 54°26' E 018°39'0 0.0
2018-Apr-18 10:29N 54°26' E 018°39'0 0.1
2018-Apr-18 09:59N 54°26' E 018°39'0 0.0
2018-Apr-18 09:29N 54°26' E 018°39'0 0.0
2018-Apr-18 08:59N 54°26' E 018°39'0 0.1
2018-Apr-18 08:29N 54°26' E 018°39'0 0.0
2018-Apr-18 07:59N 54°26' E 018°39'0 0.0
2018-Apr-18 07:29N 54°26' E 018°39'0 0.1
2018-Apr-18 07:00N 54°26' E 018°39'2 3.7
2018-Apr-18 06:30N 54°28' E 018°41'2 4.4
2018-Apr-18 06:00N 54°29' E 018°43'3 5.3
2018-Apr-18 05:30N 54°32' E 018°46'4 7.1
2018-Apr-18 05:00N 54°32' E 018°40'4 7.8
2018-Apr-18 04:30N 54°32' E 018°33'0 0.2
2018-Apr-18 04:00N 54°32' E 018°33'0 0.0
2018-Apr-18 03:30N 54°32' E 018°33'0 0.0
2018-Apr-18 03:00N 54°32' E 018°33'0 0.0
2018-Apr-18 02:30N 54°32' E 018°33'0 0.0
2018-Apr-18 02:00N 54°32' E 018°33'0 0.0
2018-Apr-18 01:30N 54°32' E 018°33'0 0.0
2018-Apr-18 01:00N 54°32' E 018°33'0 0.0
2018-Apr-18 00:30N 54°32' E 018°33'0 0.0
2018-Apr-18 00:00N 54°32' E 018°33'0 0.0
2018-Apr-17 23:30N 54°32' E 018°33'0 0.0
2018-Apr-17 23:00N 54°32' E 018°33'0 0.0
2018-Apr-17 22:30N 54°32' E 018°33'0 0.0
2018-Apr-17 22:00N 54°32' E 018°33'0 0.0
2018-Apr-17 21:30N 54°32' E 018°33'0 0.0
2018-Apr-17 21:00N 54°32' E 018°33'0 0.0
2018-Apr-17 20:30N 54°32' E 018°33'0 0.0
2018-Apr-17 20:00N 54°32' E 018°33'0 0.0
2018-Apr-17 19:30N 54°32' E 018°33'0 0.0
2018-Apr-17 19:00N 54°32' E 018°33'0 0.0
2018-Apr-17 18:30N 54°32' E 018°33'0 0.0
2018-Apr-17 18:00N 54°32' E 018°33'0 0.0
2018-Apr-17 17:30N 54°32' E 018°33'0 0.0
2018-Apr-17 17:00N 54°32' E 018°33'0 0.0
2018-Apr-17 16:30N 54°32' E 018°33'0 0.0
2018-Apr-17 16:00N 54°32' E 018°33'0 0.0
2018-Apr-17 15:30N 54°32' E 018°33'0 0.0
2018-Apr-17 15:00N 54°32' E 018°33'0 0.0
2018-Apr-17 14:30N 54°32' E 018°33'0 0.0
2018-Apr-17 14:00N 54°32' E 018°33'0 0.0
2018-Apr-17 13:30N 54°32' E 018°33'0 0.0
2018-Apr-17 13:00N 54°32' E 018°33'0 0.0
2018-Apr-17 12:30N 54°32' E 018°33'0 0.0
2018-Apr-17 12:00N 54°32' E 018°33'0 0.0
2018-Apr-17 11:30N 54°32' E 018°33'0 0.0
2018-Apr-17 11:00N 54°32' E 018°33'0 0.0
2018-Apr-17 10:30N 54°32' E 018°33'0 0.8
2018-Apr-17 10:00N 54°32' E 018°34'4 7.1
2018-Apr-17 09:30N 54°32' E 018°40'5 9.4
2018-Apr-17 09:00N 54°32' E 018°48'5 9.6
2018-Apr-17 08:30N 54°36' E 018°53'5 9.4
2018-Apr-17 08:01N 54°40' E 018°56'5 9.2
2018-Apr-17 07:30N 54°45' E 018°58'4 8.7
2018-Apr-17 07:00N 54°48' E 018°53'5 9.5
2018-Apr-17 06:30N 54°51' E 018°46'  
Track history (hours):
 
Tides and Currents Weather Stations Pressure Air Temp Water Temp Dewpoint Dewpoint Depression Visibility Wind Speed Wind Dir Waves Ship Positions

Wilson Astakos

Last reported at 2018-Apr-27 06:28 UTC. Time now 2018-Apr-27 06:39 UTC.
Position N 57°03' E 010°04'.

Length 89 m; draft 5.2 m.

Type: Cargo ship. MMSI: 248448000.

Date/timePositionNaut miles runAvg speedWind from/ knotsBaromVisibWave heightAir tempDewpointWater temp
2018-Apr-27 06:28N 57°03' E 010°04'0 0.0
2018-Apr-27 05:58N 57°03' E 010°04'0 0.0
2018-Apr-27 05:28N 57°03' E 010°04'0 0.0
2018-Apr-27 04:58N 57°03' E 010°04'0 0.0
2018-Apr-27 04:25N 57°03' E 010°04'0 0.0
2018-Apr-27 03:55N 57°03' E 010°04'0 0.0
2018-Apr-27 03:28N 57°03' E 010°04'0 0.0
2018-Apr-27 02:55N 57°03' E 010°04'0 0.0
2018-Apr-27 02:28N 57°03' E 010°04'0 0.0
2018-Apr-27 01:58N 57°03' E 010°04'0 0.0
2018-Apr-27 01:25N 57°03' E 010°04'0 0.0
2018-Apr-27 00:55N 57°03' E 010°04'0 0.0
2018-Apr-27 00:25N 57°03' E 010°04'0 0.0
2018-Apr-26 23:55N 57°03' E 010°04'0 0.0
2018-Apr-26 23:28N 57°03' E 010°04'0 0.0
2018-Apr-26 22:58N 57°03' E 010°04'0 0.0
2018-Apr-26 22:25N 57°03' E 010°04'0 0.0
2018-Apr-26 21:58N 57°03' E 010°04'0 0.0
2018-Apr-26 21:28N 57°03' E 010°04'0 0.0
2018-Apr-26 20:58N 57°03' E 010°04'0 0.0
2018-Apr-26 20:28N 57°03' E 010°04'0 0.0
2018-Apr-26 19:58N 57°03' E 010°04'0 0.0
2018-Apr-26 19:28N 57°03' E 010°04'0 0.0
2018-Apr-26 19:00N 57°03' E 010°04'3 5.1
2018-Apr-26 18:30N 57°02' E 010°08'4 8.7
2018-Apr-26 18:00N 56°59' E 010°14'22 5.3
2018-Apr-26 13:46N 57°15' E 010°42'2 8.8
2018-Apr-26 13:30N 57°18' E 010°42'4 8.4
2018-Apr-26 13:00N 57°22' E 010°42'4 8.4
2018-Apr-26 12:30N 57°26' E 010°43'4 8.8
2018-Apr-26 12:00N 57°31' E 010°43'4 8.8
2018-Apr-26 11:30N 57°35' E 010°44'4 8.7
2018-Apr-26 11:00N 57°39' E 010°44'5 9.2
2018-Apr-26 10:30N 57°44' E 010°45'4 7.2
2018-Apr-26 10:00N 57°47' E 010°40'611.2
2018-Apr-26 09:30N 57°47' E 010°30'64 9.7
2018-Apr-26 02:53N 57°53' E 008°30'4 9.2
2018-Apr-26 02:30N 57°53' E 008°23'5 9.2
2018-Apr-26 02:00N 57°53' E 008°15'5 9.5
2018-Apr-26 01:30N 57°54' E 008°06'5 9.4
2018-Apr-26 01:00N 57°54' E 007°57'5 9.4
2018-Apr-26 00:30N 57°54' E 007°48'5 9.6
2018-Apr-26 00:00N 57°55' E 007°39'5 9.9
2018-Apr-25 23:30N 57°55' E 007°30'5 9.7
2018-Apr-25 22:59N 57°56' E 007°20'5 9.7
2018-Apr-25 22:30N 57°56' E 007°12'5 9.6
2018-Apr-25 22:00N 57°57' E 007°03'5 9.6
2018-Apr-25 21:30N 57°58' E 006°54'510.2
2018-Apr-25 21:01N 58°01' E 006°46'510.1
2018-Apr-25 20:30N 58°03' E 006°37'5 9.1
2018-Apr-25 20:00N 58°06' E 006°31'5 9.4
2018-Apr-25 19:30N 58°10' E 006°25'5 9.7
2018-Apr-25 19:00N 58°13' E 006°19'5 9.0
2018-Apr-25 18:30N 58°17' E 006°15'3 4.5
2018-Apr-25 17:56N 58°20' E 006°15'0 0.0
2018-Apr-25 17:28N 58°20' E 006°15'0 0.0
2018-Apr-25 16:58N 58°20' E 006°15'0 0.0
2018-Apr-25 16:28N 58°20' E 006°15'0 0.0
2018-Apr-25 15:58N 58°20' E 006°15'0 0.0
2018-Apr-25 15:28N 58°20' E 006°15'0 0.0
2018-Apr-25 14:55N 58°20' E 006°15'0 0.0
2018-Apr-25 14:25N 58°20' E 006°15'0 0.0
2018-Apr-25 13:58N 58°20' E 006°15'0 0.0
2018-Apr-25 13:28N 58°20' E 006°15'0 0.0
2018-Apr-25 12:55N 58°20' E 006°15'0 0.0
2018-Apr-25 12:28N 58°20' E 006°15'0 0.0
2018-Apr-25 11:58N 58°20' E 006°15'0 0.0
2018-Apr-25 11:25N 58°20' E 006°15'0 0.0
2018-Apr-25 10:58N 58°20' E 006°15'0 0.0
2018-Apr-25 10:25N 58°20' E 006°15'0 0.0
2018-Apr-25 09:52N 58°20' E 006°15'0 0.0
2018-Apr-25 09:25N 58°20' E 006°15'0 0.0
2018-Apr-25 08:55N 58°20' E 006°15'0 0.0
2018-Apr-25 08:28N 58°20' E 006°15'0 0.0
2018-Apr-25 07:58N 58°20' E 006°15'0 0.0
2018-Apr-25 07:28N 58°20' E 006°15'0 0.0
2018-Apr-25 07:00N 58°20' E 006°15'0 0.0
2018-Apr-25 06:30N 58°20' E 006°15'0 0.0
2018-Apr-25 06:00N 58°20' E 006°15'0 0.0
2018-Apr-25 05:30N 58°20' E 006°15'2 4.0
2018-Apr-25 05:00N 58°18' E 006°14'4 8.8
2018-Apr-25 04:30N 58°14' E 006°17'5 9.1
2018-Apr-25 04:00N 58°10' E 006°23'5 9.3
2018-Apr-25 03:31N 58°07' E 006°29'5 9.5
2018-Apr-25 03:00N 58°04' E 006°35'5 9.6
2018-Apr-25 02:30N 58°01' E 006°43'5 9.2
2018-Apr-25 02:00N 57°59' E 006°51'5 9.1
2018-Apr-25 01:30N 57°58' E 006°59'4 8.8
2018-Apr-25 01:00N 57°57' E 007°07'4 8.2
2018-Apr-25 00:30N 57°57' E 007°15'4 6.9
2018-Apr-24 23:59N 57°57' E 007°21'4 7.4
2018-Apr-24 23:30N 57°57' E 007°28'4 7.7
2018-Apr-24 23:00N 57°57' E 007°35'4 7.7
2018-Apr-24 22:30N 57°58' E 007°42'4 8.2
2018-Apr-24 21:59N 57°59' E 007°50'4 8.4
2018-Apr-24 21:30N 58°01' E 007°57'4 8.4
2018-Apr-24 21:00N 58°03' E 008°04'4 7.8
2018-Apr-24 20:30N 58°07' E 008°02'3 4.8
2018-Apr-24 19:59N 58°08' E 007°58'0 0.0
2018-Apr-24 19:29N 58°08' E 007°58'0 0.0
2018-Apr-24 18:59N 58°08' E 007°58'0 0.0
2018-Apr-24 18:29N 58°08' E 007°58'0 0.0
2018-Apr-24 17:59N 58°08' E 007°58'0 0.0
2018-Apr-24 17:29N 58°08' E 007°58'0 0.0
2018-Apr-24 16:59N 58°08' E 007°58'0 0.0
2018-Apr-24 16:29N 58°08' E 007°58'0 0.0
2018-Apr-24 15:59N 58°08' E 007°58'0 0.0
2018-Apr-24 15:29N 58°08' E 007°58'0 0.0
2018-Apr-24 14:59N 58°08' E 007°58'0 0.0
2018-Apr-24 14:29N 58°08' E 007°58'0 0.0
2018-Apr-24 13:59N 58°08' E 007°58'0 0.0
2018-Apr-24 13:29N 58°08' E 007°58'0 0.0
2018-Apr-24 12:59N 58°08' E 007°58'0 0.0
2018-Apr-24 12:29N 58°08' E 007°58'0 0.0
2018-Apr-24 11:59N 58°08' E 007°58'0 0.0
2018-Apr-24 11:29N 58°08' E 007°58'0 0.0
2018-Apr-24 10:59N 58°08' E 007°58'0 0.0
2018-Apr-24 10:29N 58°08' E 007°58'0 0.0
2018-Apr-24 09:59N 58°08' E 007°58'0 0.0
2018-Apr-24 09:29N 58°08' E 007°58'0 0.0
2018-Apr-24 08:59N 58°08' E 007°58'0 0.0
2018-Apr-24 08:29N 58°08' E 007°58'0 0.0
2018-Apr-24 07:59N 58°08' E 007°58'0 0.0
2018-Apr-24 07:29N 58°08' E 007°58'0 0.0
2018-Apr-24 06:59N 58°08' E 007°58'0 0.0
2018-Apr-24 06:29N 58°08' E 007°58'0 0.0
2018-Apr-24 05:59N 58°08' E 007°58'0 0.0
2018-Apr-24 05:29N 58°08' E 007°58'0 0.0
2018-Apr-24 04:59N 58°08' E 007°58'0 0.0
2018-Apr-24 04:29N 58°08' E 007°58'0 0.0
2018-Apr-24 03:59N 58°08' E 007°58'0 0.0
2018-Apr-24 03:29N 58°08' E 007°58'0 0.0
2018-Apr-24 02:59N 58°08' E 007°58'0 0.0
2018-Apr-24 02:29N 58°08' E 007°58'0 0.0
2018-Apr-24 01:59N 58°08' E 007°58'0 0.0
2018-Apr-24 01:29N 58°08' E 007°58'0 0.0
2018-Apr-24 00:59N 58°08' E 007°58'0 0.0
2018-Apr-24 00:29N 58°08' E 007°58'0 0.0
2018-Apr-23 23:59N 58°08' E 007°58'0 0.0
2018-Apr-23 23:29N 58°08' E 007°58'0 0.0
2018-Apr-23 22:59N 58°08' E 007°58'0 0.0
2018-Apr-23 22:29N 58°08' E 007°58'0 0.0
2018-Apr-23 21:59N 58°08' E 007°58'0 0.0
2018-Apr-23 21:29N 58°08' E 007°58'0 0.0
2018-Apr-23 20:59N 58°08' E 007°58'0 0.0
2018-Apr-23 20:29N 58°08' E 007°58'0 0.0
2018-Apr-23 19:59N 58°08' E 007°58'0 0.0
2018-Apr-23 19:29N 58°08' E 007°58'0 0.0
2018-Apr-23 18:59N 58°08' E 007°58'0 0.0
2018-Apr-23 18:29N 58°08' E 007°58'0 0.0
2018-Apr-23 17:59N 58°08' E 007°58'0 0.0
2018-Apr-23 17:29N 58°08' E 007°58'0 0.0
2018-Apr-23 16:59N 58°08' E 007°58'0 0.0
2018-Apr-23 16:29N 58°08' E 007°58'0 0.0
2018-Apr-23 15:59N 58°08' E 007°58'0 0.0
2018-Apr-23 15:29N 58°08' E 007°58'0 0.0
2018-Apr-23 14:59N 58°08' E 007°58'0 0.0
2018-Apr-23 14:29N 58°08' E 007°58'0 0.0
2018-Apr-23 13:59N 58°08' E 007°58'0 0.0
2018-Apr-23 13:29N 58°08' E 007°58'0 0.0
2018-Apr-23 12:59N 58°08' E 007°58'0 0.0
2018-Apr-23 12:29N 58°08' E 007°58'0 0.0
2018-Apr-23 11:59N 58°08' E 007°58'0 0.0
2018-Apr-23 11:29N 58°08' E 007°58'0 0.0
2018-Apr-23 10:59N 58°08' E 007°58'0 0.0
2018-Apr-23 10:29N 58°08' E 007°58'0 0.0
2018-Apr-23 09:59N 58°08' E 007°58'0 0.0
2018-Apr-23 09:29N 58°08' E 007°58'0 0.0
2018-Apr-23 08:56N 58°08' E 007°58'0 0.0
2018-Apr-23 08:29N 58°08' E 007°58'0 0.0
2018-Apr-23 07:59N 58°08' E 007°58'0 0.0
2018-Apr-23 07:29N 58°08' E 007°58'0 0.0
2018-Apr-23 06:59N 58°08' E 007°58'0 0.0
2018-Apr-23 06:29N 58°08' E 007°58'0 0.0
2018-Apr-23 05:59N 58°08' E 007°58'0 0.0
2018-Apr-23 05:29N 58°08' E 007°58'0 0.0
2018-Apr-23 04:59N 58°08' E 007°58'0 0.0
2018-Apr-23 04:29N 58°08' E 007°58'0 0.0
2018-Apr-23 03:59N 58°08' E 007°58'0 0.0
2018-Apr-23 03:29N 58°08' E 007°58'0 0.0
2018-Apr-23 02:59N 58°08' E 007°58'0 0.0
2018-Apr-23 02:29N 58°08' E 007°58'0 0.0
2018-Apr-23 01:59N 58°08' E 007°58'0 0.0
2018-Apr-23 01:29N 58°08' E 007°58'0 0.0
2018-Apr-23 00:59N 58°08' E 007°58'0 0.0
2018-Apr-23 00:29N 58°08' E 007°58'0 0.0
2018-Apr-22 23:56N 58°08' E 007°58'0 0.0
2018-Apr-22 23:29N 58°08' E 007°58'0 0.0
2018-Apr-22 22:59N 58°08' E 007°58'0 0.0
2018-Apr-22 22:29N 58°08' E 007°58'0 0.0
2018-Apr-22 21:59N 58°08' E 007°58'0 0.0
2018-Apr-22 21:29N 58°08' E 007°58'0 0.0
2018-Apr-22 20:59N 58°08' E 007°58'0 0.0
2018-Apr-22 20:29N 58°08' E 007°58'0 0.0
2018-Apr-22 19:59N 58°08' E 007°58'0 0.0
2018-Apr-22 19:29N 58°08' E 007°58'0 0.0
2018-Apr-22 18:59N 58°08' E 007°58'0 0.0
2018-Apr-22 18:29N 58°08' E 007°58'0 0.0
2018-Apr-22 17:59N 58°08' E 007°58'0 0.0
2018-Apr-22 17:29N 58°08' E 007°58'0 0.0
2018-Apr-22 16:59N 58°08' E 007°58'0 0.0
2018-Apr-22 16:29N 58°08' E 007°58'0 0.0
2018-Apr-22 15:59N 58°08' E 007°58'0 0.0
2018-Apr-22 15:29N 58°08' E 007°58'0 0.0
2018-Apr-22 14:59N 58°08' E 007°58'0 0.0
2018-Apr-22 14:29N 58°08' E 007°58'0 0.0
2018-Apr-22 13:59N 58°08' E 007°58'0 0.0
2018-Apr-22 13:29N 58°08' E 007°58'0 0.0
2018-Apr-22 12:59N 58°08' E 007°58'0 0.0
2018-Apr-22 12:29N 58°08' E 007°58'0 0.0
2018-Apr-22 11:59N 58°08' E 007°58'0 0.0
2018-Apr-22 11:29N 58°08' E 007°58'0 0.0
2018-Apr-22 10:59N 58°08' E 007°58'0 0.0
2018-Apr-22 10:29N 58°08' E 007°58'0 0.0
2018-Apr-22 09:59N 58°08' E 007°58'0 0.0
2018-Apr-22 09:29N 58°08' E 007°58'0 0.0
2018-Apr-22 08:59N 58°08' E 007°58'0 0.0
2018-Apr-22 08:29N 58°08' E 007°58'0 0.0
2018-Apr-22 07:59N 58°08' E 007°58'0 0.0
2018-Apr-22 07:29N 58°08' E 007°58'0 0.0
2018-Apr-22 06:59N 58°08' E 007°58'0 0.2
2018-Apr-22 06:30N 58°08' E 007°58'3 5.1
2018-Apr-22 06:00N 58°07' E 008°02'4 8.2
2018-Apr-22 05:30N 58°03' E 008°07'3 6.6
2018-Apr-22 05:00N 58°02' E 008°12'5 9.9
2018-Apr-22 04:31N 58°00' E 008°21'5 9.2
2018-Apr-22 04:00N 57°59' E 008°29'14 8.7
2018-Apr-22 02:25N 57°55' E 008°54'4 9.3
2018-Apr-22 02:00N 57°55' E 009°01'4 8.8
2018-Apr-22 01:30N 57°55' E 009°10'4 8.4
2018-Apr-22 01:00N 57°54' E 009°18'4 8.8
2018-Apr-22 00:30N 57°54' E 009°26'5 9.9
2018-Apr-22 00:01N 57°53' E 009°35'5 9.5
2018-Apr-21 23:30N 57°53' E 009°44'4 8.9
2018-Apr-21 23:01N 57°52' E 009°52'5 9.6
2018-Apr-21 22:31N 57°51' E 010°01'5 9.5
2018-Apr-21 22:01N 57°51' E 010°10'5 9.3
2018-Apr-21 21:30N 57°50' E 010°19'5 9.2
2018-Apr-21 21:01N 57°49' E 010°27'4 8.8
2018-Apr-21 20:30N 57°49' E 010°35'4 8.2
2018-Apr-21 20:00N 57°49' E 010°43'4 7.4
2018-Apr-21 19:30N 57°47' E 010°49'4 7.5
2018-Apr-21 19:00N 57°44' E 010°54'4 8.4
2018-Apr-21 18:30N 57°41' E 010°60'4 8.4
2018-Apr-21 18:00N 57°38' E 011°05'4 8.7
2018-Apr-21 17:31N 57°35' E 011°11'5 9.4
2018-Apr-21 17:01N 57°32' E 011°18'5 9.7
2018-Apr-21 16:31N 57°29' E 011°24'5 9.4
2018-Apr-21 16:01N 57°25' E 011°28'5 9.6
2018-Apr-21 15:31N 57°20' E 011°31'5 9.5
2018-Apr-21 15:00N 57°16' E 011°34'5 9.6
2018-Apr-21 14:29N 57°11' E 011°37'5 9.4
2018-Apr-21 14:00N 57°07' E 011°40'5 9.3
2018-Apr-21 13:31N 57°02' E 011°43'5 9.2
2018-Apr-21 12:58N 56°58' E 011°46'5 8.9
2018-Apr-21 12:25N 56°53' E 011°49'47 8.0
2018-Apr-21 06:33N 56°10' E 012°25'0 8.8
2018-Apr-21 06:30N 56°10' E 012°26'4 8.3
2018-Apr-21 06:01N 56°08' E 012°32'4 7.7
2018-Apr-21 05:30N 56°05' E 012°37'3 6.7
2018-Apr-21 05:01N 56°02' E 012°40'4 7.4
2018-Apr-21 04:31N 55°59' E 012°42'4 8.6
2018-Apr-21 04:01N 55°55' E 012°45'5 9.0
2018-Apr-21 03:31N 55°50' E 012°44'5 9.5
2018-Apr-21 03:01N 55°46' E 012°42'4 8.6
2018-Apr-21 02:31N 55°41' E 012°41'4 7.5
2018-Apr-21 02:01N 55°38' E 012°42'3 6.8
2018-Apr-21 01:31N 55°34' E 012°42'4 7.9
2018-Apr-21 01:00N 55°30' E 012°43'4 8.7
2018-Apr-21 00:31N 55°26' E 012°42'4 8.9
2018-Apr-21 00:01N 55°21' E 012°41'4 9.0
2018-Apr-20 23:31N 55°17' E 012°40'4 8.7
2018-Apr-20 23:00N 55°13' E 012°41'9 8.9
2018-Apr-20 21:58N 55°09' E 012°56'129 8.1
2018-Apr-20 06:03N 54°50' E 016°38'1 9.5
2018-Apr-20 05:57N 54°50' E 016°40'5 9.5
2018-Apr-20 05:27N 54°51' E 016°48'6 9.5
2018-Apr-20 04:47N 54°52' E 016°58'5 9.4
2018-Apr-20 04:18N 54°53' E 017°06'3 9.4
2018-Apr-20 04:00N 54°54' E 017°11'6 9.4
2018-Apr-20 03:25N 54°55' E 017°20'4 9.3
2018-Apr-20 03:00N 54°56' E 017°27'6 9.4
2018-Apr-20 02:24N 54°56' E 017°37'4 9.3
2018-Apr-20 02:00N 54°56' E 017°43'6 9.4
2018-Apr-20 01:24N 54°56' E 017°53'4 9.5
2018-Apr-20 01:00N 54°56' E 017°60'5 9.3
2018-Apr-20 00:30N 54°56' E 018°08'5 9.3
2018-Apr-20 00:00N 54°56' E 018°16'4 7.7
2018-Apr-19 23:31N 54°55' E 018°22'5 9.1
2018-Apr-19 23:01N 54°52' E 018°28'5 9.1
2018-Apr-19 22:31N 54°49' E 018°34'5 9.1
2018-Apr-19 22:00N 54°46' E 018°40'5 9.1
2018-Apr-19 21:31N 54°44' E 018°47'5 9.4
2018-Apr-19 21:00N 54°42' E 018°54'4 7.5
2018-Apr-19 20:31N 54°38' E 018°56'5 9.4
2018-Apr-19 20:01N 54°34' E 018°52'5 9.2
2018-Apr-19 19:31N 54°31' E 018°46'5 9.5
2018-Apr-19 19:01N 54°27' E 018°41'3 6.2
2018-Apr-19 18:31N 54°24' E 018°41'2 3.7
2018-Apr-19 18:00N 54°22' E 018°40'0 0.4
2018-Apr-19 17:26N 54°22' E 018°40'0 0.0
2018-Apr-19 16:59N 54°22' E 018°40'0 0.0
2018-Apr-19 16:29N 54°22' E 018°40'0 0.0
2018-Apr-19 15:59N 54°22' E 018°40'0 0.0
2018-Apr-19 15:29N 54°22' E 018°40'0 0.0
2018-Apr-19 14:59N 54°22' E 018°40'0 0.0
2018-Apr-19 14:29N 54°22' E 018°40'0 0.0
2018-Apr-19 13:59N 54°22' E 018°40'0 0.0
2018-Apr-19 13:29N 54°22' E 018°40'0 0.0
2018-Apr-19 12:59N 54°22' E 018°40'0 0.0
2018-Apr-19 12:29N 54°22' E 018°40'0 0.0
2018-Apr-19 11:59N 54°22' E 018°40'0 0.0
2018-Apr-19 11:29N 54°22' E 018°40'0 0.0
2018-Apr-19 10:59N 54°22' E 018°40'0 0.0
2018-Apr-19 10:29N 54°22' E 018°40'0 0.0
2018-Apr-19 09:59N 54°22' E 018°40'0 0.0
2018-Apr-19 09:29N 54°22' E 018°40'0 0.0
2018-Apr-19 08:59N 54°22' E 018°40'0 0.0
2018-Apr-19 08:26N 54°22' E 018°40'0 0.0
2018-Apr-19 07:59N 54°22' E 018°40'0 0.0
2018-Apr-19 07:29N 54°22' E 018°40'0 0.0
2018-Apr-19 06:59N 54°22' E 018°40'0 0.0
2018-Apr-19 06:29N 54°22' E 018°40'0 0.0
2018-Apr-19 05:59N 54°22' E 018°40'0 0.0
2018-Apr-19 05:23N 54°22' E 018°40'0 0.0
2018-Apr-19 04:56N 54°22' E 018°40'0 0.0
2018-Apr-19 04:23N 54°22' E 018°40'0 0.0
2018-Apr-19 03:59N 54°22' E 018°40'0 0.0
2018-Apr-19 03:29N 54°22' E 018°40'0 0.0
2018-Apr-19 02:59N 54°22' E 018°40'0 0.0
2018-Apr-19 02:29N 54°22' E 018°40'0 0.0
2018-Apr-19 01:59N 54°22' E 018°40'0 0.0
2018-Apr-19 01:29N 54°22' E 018°40'0 0.0
2018-Apr-19 00:59N 54°22' E 018°40'0 0.0
2018-Apr-19 00:29N 54°22' E 018°40'0 0.0
2018-Apr-18 23:59N 54°22' E 018°40'0 0.0
2018-Apr-18 23:29N 54°22' E 018°40'0 0.0
2018-Apr-18 22:59N 54°22' E 018°40'0 0.0
2018-Apr-18 22:29N 54°22' E 018°40'0 0.0
2018-Apr-18 21:56N 54°22' E 018°40'0 0.0
2018-Apr-18 21:29N 54°22' E 018°40'0 0.0
2018-Apr-18 20:59N 54°22' E 018°40'0 0.0
2018-Apr-18 20:29N 54°22' E 018°40'0 0.0
2018-Apr-18 19:56N 54°22' E 018°40'0 0.0
2018-Apr-18 19:29N 54°22' E 018°40'0 0.2
2018-Apr-18 19:00N 54°22' E 018°40'3 5.4
2018-Apr-18 18:30N 54°25' E 018°39'1 2.3
2018-Apr-18 17:59N 54°26' E 018°39'0 0.0
2018-Apr-18 17:29N 54°26' E 018°39'0 0.1
2018-Apr-18 16:59N 54°26' E 018°39'0 0.1
2018-Apr-18 16:29N 54°26' E 018°39'0 0.0
2018-Apr-18 15:59N 54°26' E 018°39'0 0.0
2018-Apr-18 15:29N 54°26' E 018°39'0 0.1
2018-Apr-18 14:59N 54°26' E 018°39'0 0.0
2018-Apr-18 14:29N 54°26' E 018°39'0 0.2
2018-Apr-18 13:59N 54°26' E 018°39'0 0.1
2018-Apr-18 13:29N 54°26' E 018°39'0 0.0
2018-Apr-18 12:59N 54°26' E 018°39'0 0.0
2018-Apr-18 12:29N 54°26' E 018°39'0 0.0
2018-Apr-18 11:59N 54°26' E 018°39'0 0.1
2018-Apr-18 11:29N 54°26' E 018°39'0 0.1
2018-Apr-18 10:56N 54°26' E 018°39'0 0.0
2018-Apr-18 10:29N 54°26' E 018°39'0 0.1
2018-Apr-18 09:59N 54°26' E 018°39'0 0.0
2018-Apr-18 09:29N 54°26' E 018°39'0 0.0
2018-Apr-18 08:59N 54°26' E 018°39'0 0.1
2018-Apr-18 08:29N 54°26' E 018°39'0 0.0
2018-Apr-18 07:59N 54°26' E 018°39'0 0.0
2018-Apr-18 07:29N 54°26' E 018°39'0 0.1
2018-Apr-18 07:00N 54°26' E 018°39'2 3.7
2018-Apr-18 06:30N 54°28' E 018°41'2 4.4
2018-Apr-18 06:00N 54°29' E 018°43'3 5.3
2018-Apr-18 05:30N 54°32' E 018°46'4 7.1
2018-Apr-18 05:00N 54°32' E 018°40'4 7.8
2018-Apr-18 04:30N 54°32' E 018°33'0 0.2
2018-Apr-18 04:00N 54°32' E 018°33'0 0.0
2018-Apr-18 03:30N 54°32' E 018°33'0 0.0
2018-Apr-18 03:00N 54°32' E 018°33'0 0.0
2018-Apr-18 02:30N 54°32' E 018°33'0 0.0
2018-Apr-18 02:00N 54°32' E 018°33'0 0.0
2018-Apr-18 01:30N 54°32' E 018°33'0 0.0
2018-Apr-18 01:00N 54°32' E 018°33'0 0.0
2018-Apr-18 00:30N 54°32' E 018°33'0 0.0
2018-Apr-18 00:00N 54°32' E 018°33'0 0.0
2018-Apr-17 23:30N 54°32' E 018°33'0 0.0
2018-Apr-17 23:00N 54°32' E 018°33'0 0.0
2018-Apr-17 22:30N 54°32' E 018°33'0 0.0
2018-Apr-17 22:00N 54°32' E 018°33'0 0.0
2018-Apr-17 21:30N 54°32' E 018°33'0 0.0
2018-Apr-17 21:00N 54°32' E 018°33'0 0.0
2018-Apr-17 20:30N 54°32' E 018°33'0 0.0
2018-Apr-17 20:00N 54°32' E 018°33'0 0.0
2018-Apr-17 19:30N 54°32' E 018°33'0 0.0
2018-Apr-17 19:00N 54°32' E 018°33'0 0.0
2018-Apr-17 18:30N 54°32' E 018°33'0 0.0
2018-Apr-17 18:00N 54°32' E 018°33'0 0.0
2018-Apr-17 17:30N 54°32' E 018°33'0 0.0
2018-Apr-17 17:00N 54°32' E 018°33'0 0.0
2018-Apr-17 16:30N 54°32' E 018°33'0 0.0
2018-Apr-17 16:00N 54°32' E 018°33'0 0.0
2018-Apr-17 15:30N 54°32' E 018°33'0 0.0
2018-Apr-17 15:00N 54°32' E 018°33'0 0.0
2018-Apr-17 14:30N 54°32' E 018°33'0 0.0
2018-Apr-17 14:00N 54°32' E 018°33'0 0.0
2018-Apr-17 13:30N 54°32' E 018°33'0 0.0
2018-Apr-17 13:00N 54°32' E 018°33'0 0.0
2018-Apr-17 12:30N 54°32' E 018°33'0 0.0
2018-Apr-17 12:00N 54°32' E 018°33'0 0.0
2018-Apr-17 11:30N 54°32' E 018°33'0 0.0
2018-Apr-17 11:00N 54°32' E 018°33'0 0.0
2018-Apr-17 10:30N 54°32' E 018°33'0 0.8
2018-Apr-17 10:00N 54°32' E 018°34'4 7.1
2018-Apr-17 09:30N 54°32' E 018°40'5 9.4
2018-Apr-17 09:00N 54°32' E 018°48'5 9.6
2018-Apr-17 08:30N 54°36' E 018°53'5 9.4
2018-Apr-17 08:01N 54°40' E 018°56'5 9.2
2018-Apr-17 07:30N 54°45' E 018°58'4 8.7
2018-Apr-17 07:00N 54°48' E 018°53'5 9.5
2018-Apr-17 06:30N 54°51' E 018°46'  

Dump ship's entire track history